This is the latest recevied weather packets stored in our database for station/object CE3TL-WX. If no packets are shown the sender has not sent any weather packets the latest 10 day(s).
| Time | Temp. | Humidity | Pressure | Rain* | Wind** | Luminosity | Snow |
|---|---|---|---|---|---|---|---|
| 1778012709 | 18.89° C | 43% | 1020.3 hPa | - | - | - | - |
| 1778012175 | 18.89° C | 43% | 1020.2 hPa | - | - | - | - |
| 1778011642 | 19.44° C | 42% | 1020 hPa | - | - | - | - |
| 1778011108 | 19.44° C | 42% | 1020.3 hPa | - | - | - | - |
| 1778010575 | 19.44° C | 41% | 1020.2 hPa | - | - | - | - |
| 1778010040 | 20° C | 39% | 1020.2 hPa | - | - | - | - |
| 1778009505 | 20° C | 36% | 1020 hPa | - | - | - | - |
| 1778008972 | 20° C | 36% | 1020 hPa | - | - | - | - |
| 1778008437 | 20.56° C | 35% | 1020 hPa | - | - | - | - |
| 1778007902 | 20.56° C | 35% | 1019.8 hPa | - | - | - | - |
| 1778007370 | 20.56° C | 34% | 1019.9 hPa | - | - | - | - |
| 1778006833 | 20.56° C | 34% | 1019.8 hPa | - | - | - | - |
| 1778006299 | 21.11° C | 34% | 1019.8 hPa | - | - | - | - |
| 1778005765 | 21.11° C | 33% | 1019.7 hPa | - | - | - | - |
| 1778005230 | 21.11° C | 32% | 1019.5 hPa | - | - | - | - |
| 1778004697 | 21.11° C | 34% | 1019.6 hPa | - | - | - | - |
| 1778004163 | 21.11° C | 33% | 1019.5 hPa | - | - | - | - |
| 1778003629 | 21.11° C | 31% | 1019.5 hPa | - | - | - | - |
| 1778003095 | 21.11° C | 33% | 1019.5 hPa | - | - | - | - |
| 1778002561 | 21.11° C | 33% | 1019.4 hPa | - | - | - | - |
| 1778002027 | 21.11° C | 36% | 1019.6 hPa | - | - | - | - |
| 1778001492 | 21.11° C | 34% | 1019.4 hPa | - | - | - | - |
| 1778000958 | 20.56° C | 35% | 1019.5 hPa | - | - | - | - |
| 1778000425 | 20.56° C | 35% | 1019.4 hPa | - | - | - | - |
| 1777999890 | 20.56° C | 37% | 1019.6 hPa | - | - | - | - |
* Rain since midnight (hover to see other rain measurements)
** Current wind speed in m/s (hover to see current wind gust speed)